createdAt,value
2023-04-23T00:01:35.962Z,2.17
2023-04-23T00:04:07.157Z,2.53
2023-04-23T00:06:39.764Z,6.13
2023-04-23T00:09:10.728Z,2.65
2023-04-23T00:11:43.614Z,2.67
2023-04-23T00:14:11.848Z,4.35
2023-04-23T00:16:41.079Z,2.47
2023-04-23T00:19:08.366Z,2.40
2023-04-23T00:21:35.626Z,5.10
2023-04-23T00:24:02.793Z,2.10
2023-04-23T00:26:30.194Z,4.88
2023-04-23T00:29:00.454Z,4.25
2023-04-23T00:31:27.803Z,4.85
2023-04-23T00:33:54.917Z,1.98
2023-04-23T00:36:26.630Z,5.18
2023-04-23T00:38:56.912Z,3.80
2023-04-23T00:41:27.355Z,3.83
2023-04-23T00:43:57.541Z,7.35
2023-04-23T00:46:26.985Z,3.90
2023-04-23T00:48:55.474Z,4.78
2023-04-23T00:51:26.368Z,4.90
2023-04-23T00:53:57.253Z,4.68
2023-04-23T00:56:25.901Z,2.17
2023-04-23T00:58:56.628Z,1.70
2023-04-23T01:01:24.361Z,3.13
2023-04-23T01:03:57.099Z,3.17
2023-04-23T01:06:25.298Z,2.67
2023-04-23T01:08:56.136Z,2.45
2023-04-23T01:11:23.922Z,3.55
2023-04-23T01:13:51.244Z,5.68
2023-04-23T01:16:18.541Z,3.38
2023-04-23T01:18:49.846Z,2.38
2023-04-23T01:21:18.649Z,3.03
2023-04-23T01:23:49.430Z,2.30
2023-04-23T01:26:19.657Z,4.45
2023-04-23T01:28:47.495Z,3.05
2023-04-23T01:31:14.791Z,2.25
2023-04-23T01:33:42.571Z,3.17
2023-04-23T01:36:10.649Z,4.03
2023-04-23T01:38:39.276Z,2.40
2023-04-23T01:41:09.754Z,2.55
2023-04-23T01:43:37.481Z,2.58
2023-04-23T01:46:05.074Z,3.95
2023-04-23T01:48:32.468Z,1.80
2023-04-23T01:51:01.333Z,6.28
2023-04-23T01:53:28.562Z,3.70
2023-04-23T01:55:57.049Z,2.38
2023-04-23T01:58:24.992Z,5.07
2023-04-23T02:00:56.631Z,3.30
2023-04-23T02:03:23.934Z,2.00
2023-04-23T02:05:52.145Z,4.43
2023-04-23T02:08:19.074Z,2.53
2023-04-23T02:10:50.670Z,4.18
2023-04-23T02:13:17.850Z,4.38
2023-04-23T02:15:44.982Z,5.63
2023-04-23T02:18:12.609Z,2.63
2023-04-23T02:20:41.993Z,2.72
2023-04-23T02:23:09.521Z,2.42
2023-04-23T02:25:40.790Z,6.05
2023-04-23T02:28:13.534Z,4.10
2023-04-23T02:30:46.149Z,3.45
2023-04-23T02:33:13.656Z,5.90
2023-04-23T02:35:41.169Z,2.58
2023-04-23T02:38:08.338Z,6.55
2023-04-23T02:40:35.424Z,2.47
2023-04-23T02:43:05.458Z,2.35
2023-04-23T02:45:32.624Z,3.13
2023-04-23T02:47:59.792Z,2.25
2023-04-23T02:50:31.240Z,1.98
2023-04-23T02:55:29.114Z,2.45
2023-04-23T02:57:56.087Z,3.67
2023-04-23T03:00:23.487Z,5.15
2023-04-23T03:02:50.780Z,3.35
2023-04-23T03:05:18.227Z,2.08
2023-04-23T03:07:45.208Z,2.70
2023-04-23T03:10:12.364Z,2.00
2023-04-23T03:12:39.664Z,5.18
2023-04-23T03:15:07.241Z,3.00
2023-04-23T03:17:34.655Z,2.47
2023-04-23T03:20:02.251Z,3.85
2023-04-23T03:22:36.745Z,3.90
2023-04-23T03:25:04.843Z,3.28
2023-04-23T03:27:32.083Z,1.95
2023-04-23T03:29:59.194Z,2.78
2023-04-23T03:32:26.533Z,2.65
2023-04-23T03:34:53.630Z,2.30
2023-04-23T03:37:21.192Z,2.30
2023-04-23T03:39:48.226Z,3.88
2023-04-23T03:42:14.993Z,2.33
2023-04-23T03:44:42.101Z,1.90
2023-04-23T03:47:12.586Z,3.10
2023-04-23T03:49:40.627Z,2.78
2023-04-23T03:52:07.597Z,1.75
2023-04-23T03:54:34.913Z,4.50
2023-04-23T03:57:02.834Z,2.28
2023-04-23T03:59:29.719Z,3.67
2023-04-23T04:01:56.941Z,2.90
2023-04-23T04:04:24.138Z,3.60
2023-04-23T04:06:51.290Z,4.43
2023-04-23T04:09:18.242Z,2.95
2023-04-23T04:11:45.485Z,5.50
2023-04-23T04:14:12.652Z,3.53
2023-04-23T04:16:39.649Z,2.72
2023-04-23T04:19:07.459Z,4.00
2023-04-23T04:21:34.524Z,2.75
2023-04-23T04:24:05.008Z,11.60
2023-04-23T04:26:32.832Z,2.05
2023-04-23T04:29:01.900Z,1.75
2023-04-23T04:31:29.282Z,2.50
2023-04-23T04:33:56.867Z,1.95
2023-04-23T04:36:25.591Z,1.77
2023-04-23T04:38:53.901Z,3.25
2023-04-23T04:41:21.939Z,2.38
2023-04-23T04:43:49.195Z,2.60
2023-04-23T04:46:19.651Z,3.15
2023-04-23T04:48:47.741Z,2.60
2023-04-23T04:51:14.919Z,2.97
2023-04-23T04:53:42.108Z,3.60
2023-04-23T04:56:09.257Z,3.42
2023-04-23T04:58:36.649Z,1.92
2023-04-23T05:01:04.122Z,3.75
2023-04-23T05:03:32.260Z,3.15
2023-04-23T05:05:59.470Z,6.22
2023-04-23T05:08:26.640Z,2.00
2023-04-23T05:10:56.531Z,2.10
2023-04-23T05:13:23.502Z,2.10
2023-04-23T05:15:50.571Z,2.50
2023-04-23T05:18:20.807Z,6.03
2023-04-23T05:20:48.000Z,1.80
2023-04-23T05:23:15.423Z,8.20
2023-04-23T05:25:42.641Z,3.33
2023-04-23T05:28:09.952Z,7.25
2023-04-23T05:30:37.253Z,5.43
2023-04-23T05:33:04.569Z,2.78
2023-04-23T05:35:32.150Z,3.67
2023-04-23T05:37:59.952Z,3.88
2023-04-23T05:40:27.031Z,2.67
2023-04-23T05:42:55.072Z,3.08
2023-04-23T05:45:22.080Z,3.78
2023-04-23T05:47:49.082Z,3.55
2023-04-23T05:50:16.499Z,4.25
2023-04-23T05:52:47.200Z,5.25
2023-04-23T05:55:19.016Z,6.32
2023-04-23T05:57:49.606Z,4.18
2023-04-23T06:00:17.422Z,3.33
2023-04-23T06:02:44.715Z,4.47
2023-04-23T06:05:12.276Z,4.68
2023-04-23T06:07:39.941Z,3.13
2023-04-23T06:10:07.912Z,3.85
2023-04-23T06:12:39.258Z,7.88
2023-04-23T06:15:08.731Z,8.50
2023-04-23T06:17:36.974Z,7.07
2023-04-23T06:20:05.504Z,5.05
2023-04-23T06:22:32.878Z,8.45
2023-04-23T06:25:00.152Z,6.93
2023-04-23T06:27:27.361Z,5.45
2023-04-23T06:29:54.399Z,5.35
2023-04-23T06:32:22.169Z,5.78
2023-04-23T06:34:59.983Z,4.85
2023-04-23T06:37:29.677Z,5.68
2023-04-23T06:39:57.236Z,6.80
2023-04-23T06:42:24.103Z,7.55
2023-04-23T06:44:52.432Z,8.45
2023-04-23T06:47:20.180Z,9.55
2023-04-23T06:49:47.289Z,6.80
2023-04-23T06:52:14.481Z,8.95
2023-04-23T06:54:41.976Z,7.60
2023-04-23T06:57:10.419Z,6.90
2023-04-23T06:59:37.468Z,11.45
2023-04-23T07:02:10.642Z,7.22
2023-04-23T07:04:38.100Z,7.93
2023-04-23T07:07:05.247Z,8.75
2023-04-23T07:09:32.263Z,8.38
2023-04-23T07:11:59.406Z,7.40
2023-04-23T07:14:26.499Z,9.68
2023-04-23T07:16:55.110Z,8.05
2023-04-23T07:19:22.261Z,11.10
2023-04-23T07:21:49.273Z,9.05
2023-04-23T07:24:16.814Z,9.23
2023-04-23T07:26:43.902Z,9.93
2023-04-23T07:29:11.673Z,8.07
2023-04-23T07:31:42.042Z,10.90
2023-04-23T07:34:10.153Z,8.30
2023-04-23T07:36:37.669Z,9.80
2023-04-23T07:39:05.893Z,8.77
2023-04-23T07:41:33.485Z,8.98
2023-04-23T07:44:06.674Z,10.98
2023-04-23T07:46:37.989Z,10.05
2023-04-23T07:49:05.603Z,8.77
2023-04-23T07:51:33.189Z,12.20
2023-04-23T07:54:00.300Z,9.73
2023-04-23T07:56:27.622Z,11.65
2023-04-23T07:58:58.870Z,10.90
2023-04-23T08:01:26.868Z,9.82
2023-04-23T08:04:00.493Z,8.27
2023-04-23T08:06:30.156Z,11.13
2023-04-23T08:08:57.928Z,12.02
2023-04-23T08:11:29.694Z,7.90
2023-04-23T08:13:59.637Z,8.48
2023-04-23T08:16:31.054Z,9.75
2023-04-23T08:19:05.977Z,14.05
2023-04-23T08:21:34.320Z,11.88
2023-04-23T08:24:03.338Z,9.85
2023-04-23T08:26:30.989Z,11.73
2023-04-23T08:28:57.817Z,9.98
2023-04-23T08:31:26.879Z,11.70
2023-04-23T08:33:54.812Z,11.43
2023-04-23T08:36:21.704Z,14.70
2023-04-23T08:38:50.923Z,12.60
2023-04-23T08:41:21.256Z,16.20
2023-04-23T08:43:54.311Z,15.50
2023-04-23T08:46:22.954Z,20.02
2023-04-23T08:48:56.082Z,17.00
2023-04-23T08:51:27.039Z,18.48
2023-04-23T08:53:59.465Z,17.45
2023-04-23T08:56:27.610Z,21.90
2023-04-23T08:58:58.160Z,23.13
2023-04-23T09:01:25.523Z,20.43
2023-04-23T09:03:53.746Z,21.38
2023-04-23T09:06:21.719Z,20.70
2023-04-23T09:08:49.103Z,23.98
2023-04-23T09:11:17.421Z,24.38
2023-04-23T09:13:44.540Z,28.33
2023-04-23T09:16:11.665Z,26.83
2023-04-23T09:18:42.358Z,30.85
2023-04-23T09:21:09.822Z,29.70
2023-04-23T09:23:39.776Z,29.80
2023-04-23T09:26:10.498Z,32.67
2023-04-23T09:28:38.549Z,32.30
2023-04-23T09:31:09.118Z,29.33
2023-04-23T09:33:36.398Z,25.23
2023-04-23T09:36:11.334Z,28.48
2023-04-23T09:38:41.418Z,26.23
2023-04-23T09:41:24.477Z,24.48
2023-04-23T09:43:54.311Z,21.88
2023-04-23T09:46:38.884Z,25.85
2023-04-23T09:49:10.336Z,26.30
2023-04-23T09:54:16.727Z,21.52
2023-04-23T09:56:44.706Z,22.40
2023-04-23T09:59:46.847Z,17.38
2023-04-23T10:02:15.839Z,16.55
2023-04-23T10:04:43.026Z,16.17
2023-04-23T10:07:19.724Z,11.80
2023-04-23T10:09:47.855Z,11.70
2023-04-23T10:14:46.497Z,7.40
2023-04-23T10:17:13.929Z,9.98
2023-04-23T10:19:43.479Z,9.15
2023-04-23T10:22:20.176Z,10.73
2023-04-23T10:24:58.766Z,10.90
2023-04-23T10:27:44.627Z,9.38
2023-04-23T10:30:20.419Z,9.48
2023-04-23T10:32:49.855Z,10.93
2023-04-23T10:35:17.063Z,8.50
2023-04-23T10:37:46.599Z,10.20
2023-04-23T10:40:19.556Z,10.45
2023-04-23T10:42:47.385Z,11.57
2023-04-23T10:45:25.670Z,9.90
2023-04-23T10:47:55.930Z,12.13
2023-04-23T10:50:26.689Z,12.95
2023-04-23T10:52:58.869Z,14.13
2023-04-23T10:55:31.106Z,13.20
2023-04-23T10:58:02.648Z,14.13
2023-04-23T11:00:43.690Z,12.18
2023-04-23T11:03:31.216Z,10.90
2023-04-23T11:06:04.879Z,12.05
2023-04-23T11:08:32.671Z,10.80
2023-04-23T11:11:06.847Z,9.02
2023-04-23T11:13:34.154Z,12.75
2023-04-23T11:16:26.103Z,12.02
2023-04-23T11:18:56.798Z,10.57
2023-04-23T11:21:59.727Z,12.07
2023-04-23T11:24:31.673Z,11.65
2023-04-23T11:26:59.614Z,11.05
2023-04-23T11:29:27.805Z,14.25
2023-04-23T11:32:02.956Z,10.50
2023-04-23T11:34:32.382Z,9.50
2023-04-23T11:37:00.110Z,11.43
2023-04-23T11:39:27.474Z,9.90
2023-04-23T11:41:54.883Z,12.25
2023-04-23T11:44:22.221Z,11.95
2023-04-23T11:46:52.559Z,10.00
2023-04-23T11:49:20.328Z,7.90
2023-04-23T11:51:47.990Z,10.05
2023-04-23T11:54:21.026Z,8.98
2023-04-23T11:56:53.161Z,8.57
2023-04-23T11:59:20.145Z,9.68
2023-04-23T12:01:54.334Z,11.43
2023-04-23T12:04:30.100Z,11.65
2023-04-23T12:07:07.948Z,9.50
2023-04-23T12:09:47.708Z,10.80
2023-04-23T12:12:15.850Z,10.38
2023-04-23T12:14:42.805Z,11.55
2023-04-23T12:17:19.064Z,8.82
2023-04-23T12:19:51.320Z,12.93
2023-04-23T12:22:30.792Z,13.50
2023-04-23T12:25:03.616Z,12.10
2023-04-23T12:27:41.214Z,10.32
2023-04-23T12:30:12.622Z,12.13
2023-04-23T12:35:12.960Z,9.60
2023-04-23T12:37:44.049Z,15.82
2023-04-23T12:40:12.257Z,13.50
2023-04-23T12:42:41.738Z,12.30
2023-04-23T12:45:16.579Z,10.02
2023-04-23T12:47:49.119Z,10.20
2023-04-23T12:50:17.203Z,10.40
2023-04-23T12:52:44.475Z,11.13
2023-04-23T12:55:16.139Z,10.32
2023-04-23T12:57:42.986Z,11.15
2023-04-23T13:00:13.925Z,8.65
2023-04-23T13:02:45.789Z,10.48
2023-04-23T13:05:13.726Z,9.50
2023-04-23T13:07:44.173Z,7.28
2023-04-23T13:10:14.841Z,9.25
2023-04-23T13:12:54.350Z,6.90
2023-04-23T13:15:27.040Z,9.15
2023-04-23T13:18:02.162Z,8.38
2023-04-23T13:20:29.860Z,10.00
2023-04-23T13:22:57.740Z,9.60
2023-04-23T13:25:29.219Z,6.63
2023-04-23T13:30:30.957Z,13.23
2023-04-23T13:33:01.296Z,10.73
2023-04-23T13:35:40.919Z,13.60
2023-04-23T13:38:16.230Z,12.27
2023-04-23T13:40:46.444Z,14.75
2023-04-23T13:43:14.627Z,13.90
2023-04-23T13:45:42.466Z,14.68
2023-04-23T13:48:09.323Z,14.10
2023-04-23T13:50:37.688Z,17.85
2023-04-23T13:53:05.020Z,13.95
2023-04-23T13:55:31.968Z,10.40
2023-04-23T13:57:59.689Z,11.27
2023-04-23T14:00:30.543Z,15.00
2023-04-23T14:02:58.195Z,15.00
2023-04-23T14:05:25.452Z,16.33
2023-04-23T14:07:52.363Z,16.30
2023-04-23T14:10:24.146Z,10.73
2023-04-23T14:12:52.227Z,11.27
2023-04-23T14:15:20.518Z,12.32
2023-04-23T14:17:48.169Z,13.95
2023-04-23T14:20:15.669Z,16.13
2023-04-23T14:22:46.788Z,13.70
2023-04-23T14:25:29.471Z,8.70
2023-04-23T14:28:03.628Z,10.52
2023-04-23T14:30:35.439Z,11.93
2023-04-23T14:33:09.501Z,11.23
2023-04-23T14:35:43.441Z,11.65
2023-04-23T14:38:17.132Z,14.00
2023-04-23T14:40:50.960Z,13.82
2023-04-23T14:43:28.433Z,16.75
2023-04-23T14:46:16.625Z,11.55
2023-04-23T14:48:44.611Z,12.68
2023-04-23T14:51:13.369Z,14.48
2023-04-23T14:53:40.306Z,16.17
2023-04-23T14:56:13.311Z,16.70
2023-04-23T14:58:42.787Z,16.90
2023-04-23T15:01:14.326Z,17.52
2023-04-23T15:03:46.271Z,18.80
2023-04-23T15:06:13.526Z,20.05
2023-04-23T15:08:44.546Z,16.98
2023-04-23T15:11:15.753Z,16.77
2023-04-23T15:14:03.369Z,19.52
2023-04-23T15:16:48.881Z,22.08
2023-04-23T15:19:22.653Z,21.48
2023-04-23T15:21:54.833Z,22.40
2023-04-23T15:24:21.656Z,19.88
2023-04-23T15:26:50.121Z,21.40
2023-04-23T15:29:24.697Z,21.15
2023-04-23T15:31:58.381Z,20.48
2023-04-23T15:34:29.842Z,28.20
2023-04-23T15:37:02.942Z,25.15
2023-04-23T15:39:34.734Z,49.05
2023-04-23T15:42:02.363Z,44.53
2023-04-23T15:44:30.339Z,55.80
2023-04-23T15:47:02.671Z,27.08
2023-04-23T15:49:29.507Z,30.42
2023-04-23T15:52:03.522Z,26.52
2023-04-23T15:54:30.751Z,21.60
2023-04-23T15:57:01.853Z,21.95
2023-04-23T15:59:30.481Z,21.27
2023-04-23T16:01:59.736Z,25.40
2023-04-23T16:04:28.200Z,24.02
2023-04-23T16:06:55.637Z,27.50
2023-04-23T16:09:24.989Z,22.50
2023-04-23T16:11:58.051Z,23.83
2023-04-23T16:14:25.114Z,20.95
2023-04-23T16:17:03.851Z,25.95
2023-04-23T16:19:33.622Z,20.27
2023-04-23T16:22:02.384Z,21.00
2023-04-23T16:24:32.403Z,23.33
2023-04-23T16:27:04.373Z,23.95
2023-04-23T16:29:37.183Z,23.75
2023-04-23T16:32:10.900Z,20.92
2023-04-23T16:34:41.421Z,25.52
2023-04-23T16:37:18.407Z,24.48
2023-04-23T16:39:51.635Z,24.30
2023-04-23T16:42:24.211Z,22.35
2023-04-23T16:44:55.098Z,25.35
2023-04-23T16:47:27.162Z,21.20
2023-04-23T16:49:58.075Z,28.25
2023-04-23T16:52:32.612Z,22.05
2023-04-23T16:55:01.372Z,24.38
2023-04-23T16:57:35.084Z,25.50
2023-04-23T17:00:10.212Z,25.83
2023-04-23T17:02:44.453Z,21.30
2023-04-23T17:05:11.521Z,24.63
2023-04-23T17:07:47.999Z,23.25
2023-04-23T17:10:19.869Z,24.60
2023-04-23T17:12:57.173Z,21.83
2023-04-23T17:15:28.804Z,23.27
2023-04-23T17:17:59.979Z,18.38
2023-04-23T17:20:35.330Z,20.83
2023-04-23T17:23:05.506Z,19.75
2023-04-23T17:25:41.300Z,18.00
2023-04-23T17:28:13.256Z,22.08
2023-04-23T17:30:41.126Z,21.23
2023-04-23T17:33:15.831Z,19.05
2023-04-23T17:35:47.679Z,19.17
2023-04-23T17:38:21.009Z,18.63
2023-04-23T17:40:56.126Z,19.52
2023-04-23T17:43:27.515Z,19.48
2023-04-23T17:48:31.285Z,16.88
2023-04-23T17:51:03.488Z,20.45
2023-04-23T17:53:34.690Z,16.58
2023-04-23T17:56:04.583Z,17.00
2023-04-23T17:58:38.168Z,18.17
2023-04-23T18:01:12.337Z,18.45
2023-04-23T18:03:40.370Z,20.08
2023-04-23T18:06:13.826Z,17.88
2023-04-23T18:08:42.821Z,16.95
2023-04-23T18:14:20.109Z,22.65
2023-04-23T18:16:52.000Z,17.77
2023-04-23T18:19:19.579Z,18.40
2023-04-23T18:21:50.045Z,19.15
2023-04-23T18:24:20.749Z,18.73
2023-04-23T18:26:52.164Z,14.27
2023-04-23T18:31:56.999Z,12.35
2023-04-23T18:34:24.337Z,19.67
2023-04-23T18:36:55.445Z,17.63
2023-04-23T18:39:22.497Z,17.05
2023-04-23T18:41:54.292Z,17.00
2023-04-23T18:44:23.687Z,17.90
2023-04-23T18:46:58.606Z,16.17
2023-04-23T18:49:43.750Z,17.48
2023-04-23T18:52:15.028Z,14.55
2023-04-23T18:54:49.440Z,16.35
2023-04-23T18:57:16.325Z,14.40
2023-04-23T18:59:44.266Z,17.38
2023-04-23T19:02:16.412Z,17.73
2023-04-23T19:04:48.565Z,13.80
2023-04-23T19:07:19.386Z,14.77
2023-04-23T19:09:50.332Z,14.25
2023-04-23T19:12:18.042Z,12.98
2023-04-23T19:14:49.046Z,12.18
2023-04-23T19:17:22.776Z,12.98
2023-04-23T19:19:49.784Z,13.32
2023-04-23T19:22:22.551Z,15.88
2023-04-23T19:24:49.596Z,15.48
2023-04-23T19:27:20.100Z,14.27
2023-04-23T19:29:48.385Z,14.60
2023-04-23T19:32:15.287Z,13.75
2023-04-23T19:34:42.027Z,14.18
2023-04-23T19:37:08.726Z,16.42
2023-04-23T19:39:35.710Z,17.17
2023-04-23T19:42:02.797Z,16.73
2023-04-23T19:44:29.646Z,15.90
2023-04-23T19:46:56.662Z,17.65
2023-04-23T19:49:23.707Z,16.48
2023-04-23T19:51:53.516Z,16.20
2023-04-23T19:54:21.405Z,15.82
2023-04-23T19:56:48.985Z,16.60
2023-04-23T19:59:20.704Z,18.52
2023-04-23T20:01:48.497Z,15.38
2023-04-23T20:04:15.954Z,17.30
2023-04-23T20:06:43.398Z,18.33
2023-04-23T20:09:18.422Z,17.15
2023-04-23T20:11:46.028Z,19.88
2023-04-23T20:14:13.083Z,18.90
2023-04-23T20:16:41.441Z,16.52
2023-04-23T20:19:11.557Z,17.25
2023-04-23T20:21:39.230Z,14.82
2023-04-23T20:24:07.741Z,18.00
2023-04-23T20:26:35.936Z,18.10
2023-04-23T20:29:03.353Z,17.92
2023-04-23T20:31:30.057Z,20.25
2023-04-23T20:33:58.047Z,17.45
2023-04-23T20:36:28.719Z,16.27
2023-04-23T20:38:57.991Z,20.50
2023-04-23T20:41:29.434Z,19.75
2023-04-23T20:43:57.091Z,17.13
2023-04-23T20:46:24.284Z,19.13
2023-04-23T20:48:53.813Z,19.90
2023-04-23T20:51:20.955Z,21.40
2023-04-23T20:53:47.962Z,18.90
2023-04-23T20:56:15.424Z,17.15
2023-04-23T20:58:42.500Z,18.70
2023-04-23T21:01:11.432Z,19.70
2023-04-23T21:03:39.185Z,19.40
2023-04-23T21:06:07.761Z,21.38
2023-04-23T21:08:34.925Z,24.08
2023-04-23T21:11:02.198Z,20.73
2023-04-23T21:13:28.993Z,22.00
2023-04-23T21:15:55.778Z,18.10
2023-04-23T21:18:22.502Z,19.45
2023-04-23T21:20:49.173Z,18.70
2023-04-23T21:23:15.966Z,19.70
2023-04-23T21:25:42.756Z,19.45
2023-04-23T21:28:10.428Z,23.58
2023-04-23T21:30:49.435Z,18.02
2023-04-23T21:33:17.478Z,20.55
2023-04-23T21:35:44.893Z,20.77
2023-04-23T21:38:11.843Z,18.40
2023-04-23T21:40:39.828Z,18.88
2023-04-23T21:43:07.851Z,18.85
2023-04-23T21:45:34.664Z,17.20
2023-04-23T21:48:01.825Z,19.58
2023-04-23T21:50:31.164Z,21.80
2023-04-23T21:52:59.471Z,17.02
2023-04-23T21:55:27.710Z,16.85
2023-04-23T21:58:03.107Z,19.55
2023-04-23T22:00:33.588Z,17.65
2023-04-23T22:03:00.504Z,18.00
2023-04-23T22:05:28.467Z,21.10
2023-04-23T22:07:57.221Z,17.20
2023-04-23T22:10:24.061Z,19.88
2023-04-23T22:12:51.927Z,24.90
2023-04-23T22:15:19.568Z,19.60
2023-04-23T22:17:50.308Z,21.45
2023-04-23T22:20:19.039Z,19.20
2023-04-23T22:22:46.079Z,17.42
2023-04-23T22:25:13.054Z,21.10
2023-04-23T22:27:41.529Z,18.40
2023-04-23T22:30:09.976Z,26.40
2023-04-23T22:32:38.225Z,19.70
2023-04-23T22:35:06.495Z,25.50
2023-04-23T22:37:33.880Z,17.77
2023-04-23T22:40:01.207Z,21.50
2023-04-23T22:42:27.946Z,20.58
2023-04-23T22:44:54.672Z,21.02
2023-04-23T22:47:21.797Z,15.15
2023-04-23T22:49:48.700Z,17.88
2023-04-23T22:52:15.918Z,16.27
2023-04-23T22:54:43.378Z,18.05
2023-04-23T22:57:11.969Z,17.27
2023-04-23T22:59:41.957Z,18.27
2023-04-23T23:02:09.107Z,17.55
2023-04-23T23:04:38.418Z,19.70
2023-04-23T23:07:08.855Z,19.60
2023-04-23T23:09:35.701Z,19.58
2023-04-23T23:12:03.679Z,17.98
2023-04-23T23:14:31.826Z,18.10
2023-04-23T23:16:59.020Z,18.88
2023-04-23T23:19:29.009Z,18.30
2023-04-23T23:21:55.806Z,18.80
2023-04-23T23:24:23.188Z,14.30
2023-04-23T23:26:50.906Z,18.88
2023-04-23T23:29:17.641Z,24.58
2023-04-23T23:31:44.506Z,22.52
2023-04-23T23:34:11.768Z,20.98
2023-04-23T23:36:38.581Z,21.08
2023-04-23T23:39:06.809Z,25.08
2023-04-23T23:41:33.796Z,20.88
2023-04-23T23:44:00.672Z,23.08
2023-04-23T23:46:27.619Z,20.15
2023-04-23T23:48:54.466Z,18.80
2023-04-23T23:51:21.301Z,18.92
2023-04-23T23:53:48.042Z,18.48
2023-04-23T23:56:14.781Z,18.80
2023-04-23T23:58:41.482Z,20.35
